Nearby METAR Reports

 

KTAN - Taunton, Massachusetts, USA
Distance from station: W 5mi, 8km
Updated: Mon, 20-Sep-2021 12:52pm EDT
Partly cloudy
Partly cloudy
 Wind from calm
Wind: Calm
Temperature: 72°F , 22°C
Dew Point: 55°F , 13°C
Humidity: 57%
Barometer: 30.38 inHg , 1028.8 hPa
Clouds: Partly cloudy
Visibility: 10 miles , 16 km
Cloud details: Partly cloudy 4100 ft
2021/09/20 16:52 KTAN 201652Z AUTO 00000KT 10SM SCT041 22/13 A3038 RMK AO2 SLP288 T02170128
KPYM - Plymouth, Massachusetts, USA
Distance from station: ENE 10mi, 16km
Updated: Mon, 20-Sep-2021 12:52pm EDT
Clear
Clear
 Wind from NNE
Wind: NNE 10 mph , 17 km/h
Temperature: 72°F , 22°C
Dew Point: 52°F , 11°C
Humidity: 50%
Barometer: 30.39 inHg , 1029.1 hPa
Clouds: Clear
Visibility: 10 miles , 16 km
2021/09/20 16:52 KPYM 201652Z AUTO 03009KT 10SM CLR 22/11 A3039 RMK AO2 SLP291 T02170106
 
KEWB - New Bedford, Massachusetts, USA
Distance from station: S 14mi, 23km
Updated: Mon, 20-Sep-2021 12:53pm EDT
Partly cloudy
Partly cloudy
 Wind from varies
Wind: varies 5 mph , 7 km/h
Temperature: 72°F , 22°C
Dew Point: 54°F , 12°C
Humidity: 53%
Barometer: 30.37 inHg , 1028.4 hPa
Clouds: Partly cloudy
Visibility: 10 miles , 16 km
Cloud details: Partly cloudy 4000 ft
2021/09/20 16:53 KEWB 201653Z VRB04KT 10SM SCT040 22/12 A3037 RMK AO2 SLP285 T02170117
KGHG - Marshfield, Massachusetts, USA
Distance from station: NE 20mi, 31km
Updated: Mon, 20-Sep-2021 1:15pm EDT
Clear
Clear
 Wind from varies
Wind: varies 6 mph , 9 km/h
Temperature: 70°F , 21°C
Dew Point: 50°F , 10°C
Humidity: 50%
Barometer: 30.39 inHg , 1029.1 hPa
Clouds: Clear
Visibility: 10 miles , 16 km
2021/09/20 17:15 KGHG 201715Z AUTO VRB05KT 10SM CLR 21/10 A3039 RMK AO2
 
KOWD - Norwood, Massachusetts, USA
Distance from station: NNW 24mi, 39km
Updated: Mon, 20-Sep-2021 12:53pm EDT
Clear
Clear
 Wind from ENE
Wind: ENE 5 mph , 7 km/h
Temperature: 73°F , 23°C
Dew Point: 54°F , 12°C
Humidity: 50%
Barometer: 30.38 inHg , 1028.8 hPa
Clouds: Clear
Visibility: 10 miles , 16 km
2021/09/20 16:53 KOWD 201653Z 06004KT 10SM CLR 23/12 A3038 RMK AO2 SLP287 T02330122
KMQE - East Milton, Massachusetts, USA
Distance from station: NNW 25mi, 40km
Updated: Thu, 01-Jul-2021 9:51am EDT
NOT Current

 Wind from WNW
Wind: WNW 9 mph , 15 km/h
Temperature: 75°F , 24°C
Dew Point: 70°F , 21°C
Humidity: 83%
Barometer: 29.86 inHg , 1011.2 hPa
2021/07/01 13:51 KMQE 011351Z AUTO 30008KT 24/21 A2986 RMK AO1 SLP116 T02440206
 
KFMH - Falmouth/Otis Ab, Massachusetts, USA
Distance from station: SE 27mi, 44km
Updated: Mon, 20-Sep-2021 12:45pm EDT
Clear
Clear
 Wind from ENE
Wind: ENE 12 mph , 19 km/h
Temperature: 70°F , 21°C
Dew Point: 48°F , 9°C
Humidity: 46%
Barometer: 30.39 inHg , 1029.1 hPa
Clouds: Clear
Visibility: 10 miles , 16 km
2021/09/20 16:45 KFMH 201645Z 06010KT 10SM CLR 21/09 A3039
KPVD - Providence/Green, Rhode Island, USA
Distance from station: WSW 29mi, 47km
Updated: Mon, 20-Sep-2021 12:51pm EDT
Few Clouds
Few Clouds
 Wind from E
Wind: E 5 mph , 7 km/h
Temperature: 73°F , 23°C
Dew Point: 52°F , 11°C
Humidity: 47%
Barometer: 30.39 inHg , 1029.1 hPa
Clouds: Few Clouds
Visibility: 10 miles , 16 km
Cloud details: Few Clouds 4500 ft
2021/09/20 16:51 KPVD 201651Z 09004KT 10SM FEW045 23/11 A3039 RMK AO2 SLP290 T02280111
 
KSFZ - Pawtucket, Rhode Island, USA
Distance from station: W 30mi, 48km
Updated: Mon, 20-Sep-2021 12:56pm EDT
Clear
Clear
 Wind from N
Wind: N 3 mph , 6 km/h
Temperature: 70°F , 21°C
Dew Point: 52°F , 11°C
Humidity: 53%
Barometer: 30.39 inHg , 1029.1 hPa
Clouds: Clear
Visibility: 10 miles , 16 km
2021/09/20 16:56 KSFZ 201656Z AUTO 35003KT 10SM CLR 21/11 A3039 RMK AO2 SLP298 T02110111 PNO $
KUUU - Newport, Rhode Island, USA
Distance from station: SW 31mi, 50km
Updated: Mon, 20-Sep-2021 12:53pm EDT
Clear
Clear
 Wind from ESE
Wind: ESE 8 mph , 13 km/h
Temperature: 70°F , 21°C
Dew Point: 54°F , 12°C
Humidity: 57%
Barometer: 30.38 inHg , 1028.8 hPa
Clouds: Clear
Visibility: 10 miles , 16 km
2021/09/20 16:53 KUUU 201653Z AUTO 12007KT 10SM CLR 21/12 A3038 RMK AO2 SLP285 T02110117
 
KOQU - N. Kingston/Quon, Rhode Island, USA
Distance from station: SW 32mi, 52km
Updated: Sun, 19-Sep-2021 5:50pm EDT
NOT Current
Clear
Clear
 Wind from ESE
Wind: ESE 6 mph , 9 km/h
Temperature: 72°F , 22°C
Dew Point: 50°F , 10°C
Humidity: 47%
Barometer: 30.14 inHg , 1020.7 hPa
Clouds: Clear
Visibility: 10 miles , 16 km
2021/09/19 21:50 KOQU 192150Z 11005KT 10SM SKC 22/10 A3014 RMK LAST
KBOS - Boston, Massachusetts, USA
Distance from station: N 33mi, 54km
Updated: Mon, 20-Sep-2021 12:54pm EDT
Few Clouds
Few Clouds
 Wind from ENE
Wind: ENE 8 mph , 13 km/h
Temperature: 72°F , 22°C
Dew Point: 59°F , 15°C
Humidity: 65%
Barometer: 30.39 inHg , 1029.1 hPa
Clouds: Few Clouds
Visibility: 10 miles , 16 km
Cloud details: Few Clouds 4500 ft
2021/09/20 16:54 KBOS 201654Z 07007KT 10SM FEW045 22/15 A3039 RMK AO2 SLP291 T02170150
 
KHYA - Hyannis, Massachusetts, USA
Distance from station: ESE 37mi, 59km
Updated: Mon, 20-Sep-2021 12:56pm EDT
Clear
Clear
 Wind from N
Wind: N 7 mph , 11 km/h
Temperature: 72°F , 22°C
Dew Point: 52°F , 11°C
Humidity: 50%
Barometer: 30.37 inHg , 1028.4 hPa
Clouds: Clear
Visibility: 10 miles , 16 km
2021/09/20 16:56 KHYA 201656Z 36006KT 10SM CLR 22/11 A3037 RMK AO2 SLP284 T02220111
KMVY - Marthas Vineyard, Massachusetts, USA
Distance from station: SSE 37mi, 60km
Updated: Mon, 20-Sep-2021 12:53pm EDT
Clear
Clear
 Wind from varies
Wind: varies 7 mph , 11 km/h
Temperature: 72°F , 22°C
Dew Point: 54°F , 12°C
Humidity: 53%
Barometer: 30.38 inHg , 1028.8 hPa
Clouds: Clear
Visibility: 10 miles , 16 km
2021/09/20 16:53 KMVY 201653Z VRB06KT 10SM CLR 22/12 A3038 RMK AO2 SLP287 T02220117
 
KPVC - Provincetown, Massachusetts, USA
Distance from station: ENE 38mi, 61km
Updated: Mon, 20-Sep-2021 12:56pm EDT
Clear
Clear
 Wind from NE
Wind: NE 8 mph , 13 km/h
Temperature: 70°F , 21°C
Dew Point: 57°F , 14°C
Humidity: 64%
Barometer: 30.40 inHg , 1029.5 hPa
Clouds: Clear
Visibility: 10 miles , 16 km
2021/09/20 16:56 KPVC 201656Z AUTO 05007KT 10SM CLR 21/14 A3040 RMK AO2 SLP293 T02060139
KBED - Bedford, Massachusetts, USA
Distance from station: NNW 44mi, 72km
Updated: Mon, 20-Sep-2021 12:51pm EDT
Partly cloudy
Partly cloudy
 Wind from SSW
Wind: SSW 6 mph , 9 km/h
Temperature: 72°F , 22°C
Dew Point: 54°F , 12°C
Humidity: 53%
Barometer: 30.37 inHg , 1028.4 hPa
Clouds: Partly cloudy
Visibility: 10 miles , 16 km
Cloud details: Partly cloudy 4500 ft
2021/09/20 16:51 KBED 201651Z 21005KT 10SM SCT045 22/12 A3037 RMK AO2 SLP296 T02220122
 
KBVY - Beverly, Massachusetts, USA
Distance from station: 0 48mi, 77km
Updated: Mon, 20-Sep-2021 12:53pm EDT
Clear
Clear
 Wind from S
Wind: S 6 mph , 9 km/h
Temperature: 70°F , 21°C
Dew Point: 55°F , 13°C
Humidity: 60%
Barometer: 30.38 inHg , 1028.8 hPa
Clouds: Clear
Visibility: 10 miles , 16 km
2021/09/20 16:53 KBVY 201653Z 18005KT 10SM CLR 21/13 A3038 RMK AO2 SLP284 T02110128
KCQX - Chatham, Massachusetts, USA
Distance from station: ESE 49mi, 80km
Updated: Mon, 20-Sep-2021 12:52pm EDT
Clear
Clear
 Wind from varies
Wind: varies 7 mph , 11 km/h
Temperature: 70°F , 21°C
Dew Point: 52°F , 11°C
Humidity: 53%
Barometer: 30.40 inHg , 1029.5 hPa
Clouds: Clear
Visibility: 10 miles , 16 km
2021/09/20 16:52 KCQX 201652Z AUTO VRB06KT 10SM CLR 21/11 A3040 RMK AO2 SLP295 T02060106